Terminal Aerodrome Forecast
Issued by NWS

Home | Current Version | Previous Version | Text Only | Print | Product List | Glossary On
Versions: 1 2 3 4 5 6 7 8 9 10 11 12 13 14 15 16 17
000
FTUS43 KILX 012300 RRA
TAFBMI
TAF
KBMI 012352Z 0200/0224 02018G28KT 1SM -SN BLSN OVC002
     FM020300 35020G30KT 1SM -SN BLSN OVC010
     FM020500 34013G23KT 3SM -SN BLSN OVC015
     FM020900 34012KT P6SM OVC015
     FM021300 33007KT P6SM SKC
     FM022000 24005KT P6SM BKN250=

USA.gov is the U.S. government's official web portal to all federal, state and local government web resources and services.